sensor_id;sensor_type;location;lat;lon;timestamp;temperature;humidity
65460;DHT22;52058;49.822;6.754;2023-02-14T00:01:25;-0.58;98.63
65460;DHT22;52058;49.822;6.754;2023-02-14T00:03:52;-0.61;98.77
65460;DHT22;52058;49.822;6.754;2023-02-14T00:06:18;-0.64;98.62
65460;DHT22;52058;49.822;6.754;2023-02-14T00:08:45;-0.58;98.68
65460;DHT22;52058;49.822;6.754;2023-02-14T00:11:13;-0.64;98.78
65460;DHT22;52058;49.822;6.754;2023-02-14T00:13:41;-0.64;99.09
65460;DHT22;52058;49.822;6.754;2023-02-14T00:16:28;-0.66;98.89
65460;DHT22;52058;49.822;6.754;2023-02-14T00:18:54;-0.67;98.78
65460;DHT22;52058;49.822;6.754;2023-02-14T00:21:29;-0.68;98.77
65460;DHT22;52058;49.822;6.754;2023-02-14T00:23:56;-0.71;98.50
65460;DHT22;52058;49.822;6.754;2023-02-14T00:26:25;-0.68;99.24
65460;DHT22;52058;49.822;6.754;2023-02-14T00:28:51;-0.73;99.38
65460;DHT22;52058;49.822;6.754;2023-02-14T00:31:18;-0.75;99.60
65460;DHT22;52058;49.822;6.754;2023-02-14T00:33:45;-0.71;99.51
65460;DHT22;52058;49.822;6.754;2023-02-14T00:36:11;-0.77;99.16
65460;DHT22;52058;49.822;6.754;2023-02-14T00:38:38;-0.75;98.76
65460;DHT22;52058;49.822;6.754;2023-02-14T00:41:05;-0.81;98.52
65460;DHT22;52058;49.822;6.754;2023-02-14T00:43:33;-0.71;98.89
65460;DHT22;52058;49.822;6.754;2023-02-14T00:46:00;-0.73;99.11
65460;DHT22;52058;49.822;6.754;2023-02-14T00:48:26;-0.74;99.34
65460;DHT22;52058;49.822;6.754;2023-02-14T00:50:53;-0.75;99.64
65460;DHT22;52058;49.822;6.754;2023-02-14T00:53:20;-0.75;99.65
65460;DHT22;52058;49.822;6.754;2023-02-14T00:55:46;-0.78;99.79
65460;DHT22;52058;49.822;6.754;2023-02-14T00:58:13;-0.73;99.68
65460;DHT22;52058;49.822;6.754;2023-02-14T01:00:41;-0.83;98.82
65460;DHT22;52058;49.822;6.754;2023-02-14T01:03:08;-0.89;98.80
65460;DHT22;52058;49.822;6.754;2023-02-14T01:05:35;-0.87;99.23
65460;DHT22;52058;49.822;6.754;2023-02-14T01:08:02;-0.87;99.44
65460;DHT22;52058;49.822;6.754;2023-02-14T01:10:29;-0.83;99.30
65460;DHT22;52058;49.822;6.754;2023-02-14T01:12:56;-0.88;99.53
65460;DHT22;52058;49.822;6.754;2023-02-14T01:15:22;-0.89;99.20
65460;DHT22;52058;49.822;6.754;2023-02-14T01:17:51;-0.91;99.08
65460;DHT22;52058;49.822;6.754;2023-02-14T01:20:17;-0.91;98.88
65460;DHT22;52058;49.822;6.754;2023-02-14T01:22:44;-0.95;98.63
65460;DHT22;52058;49.822;6.754;2023-02-14T01:25:11;-0.94;98.94
65460;DHT22;52058;49.822;6.754;2023-02-14T01:27:37;-0.92;99.31
65460;DHT22;52058;49.822;6.754;2023-02-14T01:30:05;-0.95;99.30
65460;DHT22;52058;49.822;6.754;2023-02-14T01:32:33;-0.97;98.97
65460;DHT22;52058;49.822;6.754;2023-02-14T01:35:01;-1.01;98.91
65460;DHT22;52058;49.822;6.754;2023-02-14T01:37:29;-1.04;99.03
65460;DHT22;52058;49.822;6.754;2023-02-14T01:39:56;-1.09;99.15
65460;DHT22;52058;49.822;6.754;2023-02-14T01:42:22;-1.12;99.62
65460;DHT22;52058;49.822;6.754;2023-02-14T01:45:01;-0.98;99.75
65460;DHT22;52058;49.822;6.754;2023-02-14T01:47:31;-0.92;99.58
65460;DHT22;52058;49.822;6.754;2023-02-14T01:50:05;-0.80;99.68
65460;DHT22;52058;49.822;6.754;2023-02-14T01:52:36;-0.75;99.37
65460;DHT22;52058;49.822;6.754;2023-02-14T01:55:07;-0.64;99.68
65460;DHT22;52058;49.822;6.754;2023-02-14T01:57:38;-0.61;99.99
65460;DHT22;52058;49.822;6.754;2023-02-14T02:00:07;-0.64;99.84
65460;DHT22;52058;49.822;6.754;2023-02-14T02:02:52;-0.67;99.70
65460;DHT22;52058;49.822;6.754;2023-02-14T02:05:20;-0.63;99.30
65460;DHT22;52058;49.822;6.754;2023-02-14T02:07:49;-0.84;98.05
65460;DHT22;52058;49.822;6.754;2023-02-14T02:10:16;-0.78;98.35
65460;DHT22;52058;49.822;6.754;2023-02-14T02:12:43;-0.70;98.56
65460;DHT22;52058;49.822;6.754;2023-02-14T02:15:10;-0.71;98.77
65460;DHT22;52058;49.822;6.754;2023-02-14T02:17:44;-0.61;98.57
65460;DHT22;52058;49.822;6.754;2023-02-14T02:20:41;-0.57;98.48
65460;DHT22;52058;49.822;6.754;2023-02-14T02:23:36;-0.43;98.09
65460;DHT22;52058;49.822;6.754;2023-02-14T02:29:44;-0.25;97.16
65460;DHT22;52058;49.822;6.754;2023-02-14T02:32:52;-0.29;97.05
65460;DHT22;52058;49.822;6.754;2023-02-14T02:35:39;-0.30;97.11
65460;DHT22;52058;49.822;6.754;2023-02-14T02:38:21;-0.32;96.97
65460;DHT22;52058;49.822;6.754;2023-02-14T02:40:57;-0.32;96.90
65460;DHT22;52058;49.822;6.754;2023-02-14T02:43:37;-0.32;97.46
65460;DHT22;52058;49.822;6.754;2023-02-14T02:46:14;-0.37;98.27
65460;DHT22;52058;49.822;6.754;2023-02-14T02:49:07;-0.22;99.94
65460;DHT22;52058;49.822;6.754;2023-02-14T02:51:45;-0.15;99.88
65460;DHT22;52058;49.822;6.754;2023-02-14T02:54:48;-0.08;99.99
65460;DHT22;52058;49.822;6.754;2023-02-14T02:57:22;0.01;99.99
65460;DHT22;52058;49.822;6.754;2023-02-14T02:59:51;0.21;99.99
65460;DHT22;52058;49.822;6.754;2023-02-14T03:02:21;0.29;99.99
65460;DHT22;52058;49.822;6.754;2023-02-14T03:04:53;0.38;99.40
65460;DHT22;52058;49.822;6.754;2023-02-14T03:07:30;0.21;98.97
65460;DHT22;52058;49.822;6.754;2023-02-14T03:10:06;0.30;99.33
65460;DHT22;52058;49.822;6.754;2023-02-14T03:13:03;0.41;99.99
65460;DHT22;52058;49.822;6.754;2023-02-14T03:15:51;0.35;99.96
65460;DHT22;52058;49.822;6.754;2023-02-14T03:18:33;0.38;99.96
65460;DHT22;52058;49.822;6.754;2023-02-14T03:21:10;0.38;99.84
65460;DHT22;52058;49.822;6.754;2023-02-14T03:23:45;0.45;99.93
65460;DHT22;52058;49.822;6.754;2023-02-14T03:26:16;0.43;99.99
65460;DHT22;52058;49.822;6.754;2023-02-14T03:28:46;0.46;99.82
65460;DHT22;52058;49.822;6.754;2023-02-14T03:31:22;0.56;99.99
65460;DHT22;52058;49.822;6.754;2023-02-14T03:33:55;0.53;99.90
65460;DHT22;52058;49.822;6.754;2023-02-14T03:36:26;0.50;99.99
65460;DHT22;52058;49.822;6.754;2023-02-14T03:39:01;0.52;99.99
65460;DHT22;52058;49.822;6.754;2023-02-14T03:41:30;0.48;99.95
65460;DHT22;52058;49.822;6.754;2023-02-14T03:44:01;0.49;99.95
65460;DHT22;52058;49.822;6.754;2023-02-14T03:46:32;0.48;99.63
65460;DHT22;52058;49.822;6.754;2023-02-14T03:49:04;0.46;99.47
65460;DHT22;52058;49.822;6.754;2023-02-14T03:51:34;0.49;99.69
65460;DHT22;52058;49.822;6.754;2023-02-14T03:54:05;0.66;99.40
65460;DHT22;52058;49.822;6.754;2023-02-14T03:56:36;0.60;99.31
65460;DHT22;52058;49.822;6.754;2023-02-14T03:59:07;0.63;99.63
65460;DHT22;52058;49.822;6.754;2023-02-14T04:01:38;0.54;99.21
65460;DHT22;52058;49.822;6.754;2023-02-14T04:04:08;0.48;99.37
65460;DHT22;52058;49.822;6.754;2023-02-14T04:06:35;0.42;99.50
65460;DHT22;52058;49.822;6.754;2023-02-14T04:09:03;0.39;99.30
65460;DHT22;52058;49.822;6.754;2023-02-14T04:11:31;0.35;99.65
65460;DHT22;52058;49.822;6.754;2023-02-14T04:13:59;0.42;99.61
65460;DHT22;52058;49.822;6.754;2023-02-14T04:16:26;0.41;98.87
65460;DHT22;52058;49.822;6.754;2023-02-14T04:18:53;0.38;99.02
65460;DHT22;52058;49.822;6.754;2023-02-14T04:21:37;0.38;98.22
65460;DHT22;52058;49.822;6.754;2023-02-14T04:24:06;0.38;97.87
65460;DHT22;52058;49.822;6.754;2023-02-14T04:26:32;0.35;97.48
65460;DHT22;52058;49.822;6.754;2023-02-14T04:28:59;0.41;97.35
65460;DHT22;52058;49.822;6.754;2023-02-14T04:31:26;0.42;97.28
65460;DHT22;52058;49.822;6.754;2023-02-14T04:33:53;0.39;97.18
65460;DHT22;52058;49.822;6.754;2023-02-14T04:36:19;0.41;97.26
65460;DHT22;52058;49.822;6.754;2023-02-14T04:38:46;0.48;97.07
65460;DHT22;52058;49.822;6.754;2023-02-14T04:41:14;0.48;97.32
65460;DHT22;52058;49.822;6.754;2023-02-14T04:43:41;0.48;97.82
65460;DHT22;52058;49.822;6.754;2023-02-14T04:46:08;0.42;99.14
65460;DHT22;52058;49.822;6.754;2023-02-14T04:48:34;0.49;99.75
65460;DHT22;52058;49.822;6.754;2023-02-14T04:51:01;0.52;99.58
65460;DHT22;52058;49.822;6.754;2023-02-14T04:53:28;0.56;99.69
65460;DHT22;52058;49.822;6.754;2023-02-14T04:55:54;0.57;99.90
65460;DHT22;52058;49.822;6.754;2023-02-14T04:58:22;0.60;99.85
65460;DHT22;52058;49.822;6.754;2023-02-14T05:00:49;0.62;99.99
65460;DHT22;52058;49.822;6.754;2023-02-14T05:03:16;0.63;99.99
65460;DHT22;52058;49.822;6.754;2023-02-14T05:05:43;0.67;99.99
65460;DHT22;52058;49.822;6.754;2023-02-14T05:08:09;0.59;99.99
65460;DHT22;52058;49.822;6.754;2023-02-14T05:10:36;0.63;99.99
65460;DHT22;52058;49.822;6.754;2023-02-14T05:13:03;0.74;99.99
65460;DHT22;52058;49.822;6.754;2023-02-14T05:15:31;0.77;99.92
65460;DHT22;52058;49.822;6.754;2023-02-14T05:17:58;0.71;99.84
65460;DHT22;52058;49.822;6.754;2023-02-14T05:20:27;0.71;99.53
65460;DHT22;52058;49.822;6.754;2023-02-14T05:22:53;0.69;99.67
65460;DHT22;52058;49.822;6.754;2023-02-14T05:25:21;0.73;99.47
65460;DHT22;52058;49.822;6.754;2023-02-14T05:27:47;0.81;99.54
65460;DHT22;52058;49.822;6.754;2023-02-14T05:30:14;0.81;99.74
65460;DHT22;52058;49.822;6.754;2023-02-14T05:32:42;0.80;99.57
65460;DHT22;52058;49.822;6.754;2023-02-14T05:35:09;0.69;99.93
65460;DHT22;52058;49.822;6.754;2023-02-14T05:37:36;0.70;99.96
65460;DHT22;52058;49.822;6.754;2023-02-14T05:40:04;0.85;99.99
65460;DHT22;52058;49.822;6.754;2023-02-14T05:42:31;0.80;99.65
65460;DHT22;52058;49.822;6.754;2023-02-14T05:44:58;0.77;99.59
65460;DHT22;52058;49.822;6.754;2023-02-14T05:47:25;0.79;99.66
65460;DHT22;52058;49.822;6.754;2023-02-14T05:49:53;0.80;99.99
65460;DHT22;52058;49.822;6.754;2023-02-14T05:52:19;0.74;99.99
65460;DHT22;52058;49.822;6.754;2023-02-14T05:54:46;0.93;99.99
65460;DHT22;52058;49.822;6.754;2023-02-14T05:57:13;0.85;99.77
65460;DHT22;52058;49.822;6.754;2023-02-14T05:59:40;0.77;99.91
65460;DHT22;52058;49.822;6.754;2023-02-14T06:02:07;0.77;99.87
65460;DHT22;52058;49.822;6.754;2023-02-14T06:04:33;0.77;99.66
65460;DHT22;52058;49.822;6.754;2023-02-14T06:07:02;0.87;99.99
65460;DHT22;52058;49.822;6.754;2023-02-14T06:09:28;0.91;99.61
65460;DHT22;52058;49.822;6.754;2023-02-14T06:11:55;0.88;99.70
65460;DHT22;52058;49.822;6.754;2023-02-14T06:14:23;0.84;99.81
65460;DHT22;52058;49.822;6.754;2023-02-14T06:16:50;0.76;99.51
65460;DHT22;52058;49.822;6.754;2023-02-14T06:19:17;0.83;99.99
65460;DHT22;52058;49.822;6.754;2023-02-14T06:21:43;0.80;99.99
65460;DHT22;52058;49.822;6.754;2023-02-14T06:24:12;0.88;99.99
65460;DHT22;52058;49.822;6.754;2023-02-14T06:26:38;0.73;99.99
65460;DHT22;52058;49.822;6.754;2023-02-14T06:29:05;0.77;99.99
65460;DHT22;52058;49.822;6.754;2023-02-14T06:31:32;0.77;99.99
65460;DHT22;52058;49.822;6.754;2023-02-14T06:33:59;0.77;99.99
65460;DHT22;52058;49.822;6.754;2023-02-14T06:36:26;0.83;99.99
65460;DHT22;52058;49.822;6.754;2023-02-14T06:38:52;0.77;99.99
65460;DHT22;52058;49.822;6.754;2023-02-14T06:41:21;0.81;99.99
65460;DHT22;52058;49.822;6.754;2023-02-14T06:43:47;0.93;99.99
65460;DHT22;52058;49.822;6.754;2023-02-14T06:46:14;0.83;99.99
65460;DHT22;52058;49.822;6.754;2023-02-14T06:48:41;0.97;99.99
65460;DHT22;52058;49.822;6.754;2023-02-14T06:51:07;0.94;99.99
65460;DHT22;52058;49.822;6.754;2023-02-14T06:53:34;1.08;99.99
65460;DHT22;52058;49.822;6.754;2023-02-14T06:56:02;1.12;99.99
65460;DHT22;52058;49.822;6.754;2023-02-14T06:58:30;1.14;99.97
65460;DHT22;52058;49.822;6.754;2023-02-14T07:00:58;1.05;99.51
65460;DHT22;52058;49.822;6.754;2023-02-14T07:03:25;1.18;99.99
65460;DHT22;52058;49.822;6.754;2023-02-14T07:05:52;1.12;99.63
65460;DHT22;52058;49.822;6.754;2023-02-14T07:08:19;1.07;99.61
65460;DHT22;52058;49.822;6.754;2023-02-14T07:10:46;1.15;99.74
65460;DHT22;52058;49.822;6.754;2023-02-14T07:13:13;1.02;99.49
65460;DHT22;52058;49.822;6.754;2023-02-14T07:15:41;1.08;99.45
65460;DHT22;52058;49.822;6.754;2023-02-14T07:18:08;1.14;98.97
65460;DHT22;52058;49.822;6.754;2023-02-14T07:20:35;1.11;98.38
65460;DHT22;52058;49.822;6.754;2023-02-14T07:23:02;1.09;98.80
65460;DHT22;52058;49.822;6.754;2023-02-14T07:25:29;1.17;98.81
65460;DHT22;52058;49.822;6.754;2023-02-14T07:27:56;1.17;98.67
65460;DHT22;52058;49.822;6.754;2023-02-14T07:30:22;1.41;97.35
65460;DHT22;52058;49.822;6.754;2023-02-14T07:32:51;1.34;97.39
65460;DHT22;52058;49.822;6.754;2023-02-14T07:35:17;1.31;97.22
65460;DHT22;52058;49.822;6.754;2023-02-14T07:37:44;1.32;97.58
65460;DHT22;52058;49.822;6.754;2023-02-14T07:40:12;1.29;97.13
65460;DHT22;52058;49.822;6.754;2023-02-14T07:42:38;1.46;96.49
65460;DHT22;52058;49.822;6.754;2023-02-14T07:45:05;1.51;95.92
65460;DHT22;52058;49.822;6.754;2023-02-14T07:47:32;1.52;95.68
65460;DHT22;52058;49.822;6.754;2023-02-14T07:50:00;1.49;94.92
65460;DHT22;52058;49.822;6.754;2023-02-14T07:52:27;1.41;95.14
65460;DHT22;52058;49.822;6.754;2023-02-14T07:54:54;1.58;94.88
65460;DHT22;52058;49.822;6.754;2023-02-14T07:57:21;1.60;94.82
65460;DHT22;52058;49.822;6.754;2023-02-14T07:59:47;1.60;94.49
65460;DHT22;52058;49.822;6.754;2023-02-14T08:02:14;1.63;94.20
65460;DHT22;52058;49.822;6.754;2023-02-14T08:04:41;1.60;94.16
65460;DHT22;52058;49.822;6.754;2023-02-14T08:07:09;1.60;94.26
65460;DHT22;52058;49.822;6.754;2023-02-14T08:09:36;1.77;94.48
65460;DHT22;52058;49.822;6.754;2023-02-14T08:12:03;1.74;94.39
65460;DHT22;52058;49.822;6.754;2023-02-14T08:14:47;1.74;94.76
65460;DHT22;52058;49.822;6.754;2023-02-14T08:17:14;1.84;94.18
65460;DHT22;52058;49.822;6.754;2023-02-14T08:19:40;1.94;94.80
65460;DHT22;52058;49.822;6.754;2023-02-14T08:22:09;1.96;94.71
65460;DHT22;52058;49.822;6.754;2023-02-14T08:24:35;1.83;94.15
65460;DHT22;52058;49.822;6.754;2023-02-14T08:27:02;1.99;94.12
65460;DHT22;52058;49.822;6.754;2023-02-14T08:29:29;1.99;94.36
65460;DHT22;52058;49.822;6.754;2023-02-14T08:31:56;1.93;94.09
65460;DHT22;52058;49.822;6.754;2023-02-14T08:34:24;1.87;94.61
65460;DHT22;52058;49.822;6.754;2023-02-14T08:36:51;1.90;94.44
65460;DHT22;52058;49.822;6.754;2023-02-14T08:39:19;1.84;94.72
65460;DHT22;52058;49.822;6.754;2023-02-14T08:41:46;1.96;94.76
65460;DHT22;52058;49.822;6.754;2023-02-14T08:44:12;1.94;94.48
65460;DHT22;52058;49.822;6.754;2023-02-14T08:46:40;2.07;94.70
65460;DHT22;52058;49.822;6.754;2023-02-14T08:49:08;1.99;94.81
65460;DHT22;52058;49.822;6.754;2023-02-14T08:51:35;1.90;95.07
65460;DHT22;52058;49.822;6.754;2023-02-14T08:54:01;2.09;94.44
65460;DHT22;52058;49.822;6.754;2023-02-14T08:56:30;2.04;94.31
65460;DHT22;52058;49.822;6.754;2023-02-14T08:58:57;2.06;94.43
65460;DHT22;52058;49.822;6.754;2023-02-14T09:01:24;2.21;94.05
65460;DHT22;52058;49.822;6.754;2023-02-14T09:03:51;2.28;93.18
65460;DHT22;52058;49.822;6.754;2023-02-14T09:06:18;2.51;92.89
65460;DHT22;52058;49.822;6.754;2023-02-14T09:08:45;2.53;92.40
65460;DHT22;52058;49.822;6.754;2023-02-14T09:11:14;2.62;92.57
65460;DHT22;52058;49.822;6.754;2023-02-14T09:13:45;2.52;91.90
65460;DHT22;52058;49.822;6.754;2023-02-14T09:16:14;2.63;92.63
65460;DHT22;52058;49.822;6.754;2023-02-14T09:18:42;2.80;92.01
65460;DHT22;52058;49.822;6.754;2023-02-14T09:21:11;2.48;91.69
65460;DHT22;52058;49.822;6.754;2023-02-14T09:23:38;2.90;91.59
65460;DHT22;52058;49.822;6.754;2023-02-14T09:26:06;2.95;91.25
65460;DHT22;52058;49.822;6.754;2023-02-14T09:28:34;2.97;91.36
65460;DHT22;52058;49.822;6.754;2023-02-14T09:31:09;3.14;91.33
65460;DHT22;52058;49.822;6.754;2023-02-14T09:33:37;3.10;90.91
65460;DHT22;52058;49.822;6.754;2023-02-14T09:36:22;3.34;90.89
65460;DHT22;52058;49.822;6.754;2023-02-14T09:39:06;3.28;90.48
65460;DHT22;52058;49.822;6.754;2023-02-14T09:41:54;3.44;90.66
65460;DHT22;52058;49.822;6.754;2023-02-14T09:44:26;3.30;90.50
65460;DHT22;52058;49.822;6.754;2023-02-14T09:46:59;3.55;90.37
65460;DHT22;52058;49.822;6.754;2023-02-14T09:49:30;3.95;89.14
65460;DHT22;52058;49.822;6.754;2023-02-14T09:52:00;4.03;89.21
65460;DHT22;52058;49.822;6.754;2023-02-14T09:54:29;4.16;88.59
65460;DHT22;52058;49.822;6.754;2023-02-14T09:57:02;3.95;89.45
65460;DHT22;52058;49.822;6.754;2023-02-14T09:59:36;4.24;88.81
65460;DHT22;52058;49.822;6.754;2023-02-14T10:02:17;4.17;89.00
65460;DHT22;52058;49.822;6.754;2023-02-14T10:04:55;4.19;88.65
65460;DHT22;52058;49.822;6.754;2023-02-14T10:07:28;4.02;88.65
65460;DHT22;52058;49.822;6.754;2023-02-14T10:10:00;4.14;89.01
65460;DHT22;52058;49.822;6.754;2023-02-14T10:12:31;4.16;90.00
65460;DHT22;52058;49.822;6.754;2023-02-14T10:15:04;4.46;88.81
65460;DHT22;52058;49.822;6.754;2023-02-14T10:17:37;4.84;87.48
65460;DHT22;52058;49.822;6.754;2023-02-14T10:20:15;4.50;87.92
65460;DHT22;52058;49.822;6.754;2023-02-14T10:22:48;4.89;87.79
65460;DHT22;52058;49.822;6.754;2023-02-14T10:25:20;5.05;86.54
65460;DHT22;52058;49.822;6.754;2023-02-14T10:27:48;4.91;87.40
65460;DHT22;52058;49.822;6.754;2023-02-14T10:30:19;5.12;86.41
65460;DHT22;52058;49.822;6.754;2023-02-14T10:32:51;5.18;86.48
65460;DHT22;52058;49.822;6.754;2023-02-14T10:35:30;5.26;86.35
65460;DHT22;52058;49.822;6.754;2023-02-14T10:38:09;5.35;86.35
65460;DHT22;52058;49.822;6.754;2023-02-14T10:40:57;4.98;86.45
65460;DHT22;52058;49.822;6.754;2023-02-14T10:43:33;5.33;86.48
65460;DHT22;52058;49.822;6.754;2023-02-14T10:46:10;5.25;86.51
65460;DHT22;52058;49.822;6.754;2023-02-14T10:48:48;5.40;86.20
65460;DHT22;52058;49.822;6.754;2023-02-14T10:51:21;5.83;85.51
65460;DHT22;52058;49.822;6.754;2023-02-14T10:54:01;5.42;87.15
65460;DHT22;52058;49.822;6.754;2023-02-14T10:56:33;5.61;86.33
65460;DHT22;52058;49.822;6.754;2023-02-14T10:59:07;5.36;85.54
65460;DHT22;52058;49.822;6.754;2023-02-14T11:01:39;5.88;84.71
65460;DHT22;52058;49.822;6.754;2023-02-14T11:04:09;5.44;85.33
65460;DHT22;52058;49.822;6.754;2023-02-14T11:06:38;5.73;86.30
65460;DHT22;52058;49.822;6.754;2023-02-14T11:09:05;5.54;85.18
65460;DHT22;52058;49.822;6.754;2023-02-14T11:11:35;5.30;85.25
65460;DHT22;52058;49.822;6.754;2023-02-14T11:14:18;5.12;87.50
65460;DHT22;52058;49.822;6.754;2023-02-14T11:16:45;5.06;87.62
65460;DHT22;52058;49.822;6.754;2023-02-14T11:19:22;5.20;88.31
65460;DHT22;52058;49.822;6.754;2023-02-14T11:21:51;5.36;88.50
65460;DHT22;52058;49.822;6.754;2023-02-14T11:24:25;5.25;87.14
65460;DHT22;52058;49.822;6.754;2023-02-14T11:26:54;5.29;87.72
65460;DHT22;52058;49.822;6.754;2023-02-14T11:29:26;5.27;87.88
65460;DHT22;52058;49.822;6.754;2023-02-14T11:31:53;5.05;88.07
65460;DHT22;52058;49.822;6.754;2023-02-14T11:34:31;4.78;88.49
65460;DHT22;52058;49.822;6.754;2023-02-14T11:37:01;4.93;89.13
65460;DHT22;52058;49.822;6.754;2023-02-14T11:39:30;4.98;88.56
65460;DHT22;52058;49.822;6.754;2023-02-14T11:41:58;5.00;89.46
65460;DHT22;52058;49.822;6.754;2023-02-14T11:44:28;4.92;89.86
65460;DHT22;52058;49.822;6.754;2023-02-14T11:47:15;4.85;90.28
65460;DHT22;52058;49.822;6.754;2023-02-14T11:49:53;5.09;89.68
65460;DHT22;52058;49.822;6.754;2023-02-14T11:52:21;4.91;89.66
65460;DHT22;52058;49.822;6.754;2023-02-14T11:54:53;5.16;90.21
65460;DHT22;52058;49.822;6.754;2023-02-14T11:57:22;5.06;89.93
65460;DHT22;52058;49.822;6.754;2023-02-14T11:59:53;5.40;90.04
65460;DHT22;52058;49.822;6.754;2023-02-14T12:02:27;5.22;89.46
65460;DHT22;52058;49.822;6.754;2023-02-14T12:04:58;5.39;90.77
65460;DHT22;52058;49.822;6.754;2023-02-14T12:07:29;5.22;89.61
65460;DHT22;52058;49.822;6.754;2023-02-14T12:10:16;5.32;90.20
65460;DHT22;52058;49.822;6.754;2023-02-14T12:12:51;5.39;89.51
65460;DHT22;52058;49.822;6.754;2023-02-14T12:18:11;5.64;89.61
65460;DHT22;52058;49.822;6.754;2023-02-14T12:20:46;5.79;89.46
65460;DHT22;52058;49.822;6.754;2023-02-14T12:23:17;5.94;89.22
65460;DHT22;52058;49.822;6.754;2023-02-14T12:25:49;6.14;89.04
65460;DHT22;52058;49.822;6.754;2023-02-14T12:28:20;6.29;89.27
65460;DHT22;52058;49.822;6.754;2023-02-14T12:30:48;6.19;88.11
65460;DHT22;52058;49.822;6.754;2023-02-14T12:33:18;6.42;88.35
65460;DHT22;52058;49.822;6.754;2023-02-14T12:35:53;6.72;88.31
65460;DHT22;52058;49.822;6.754;2023-02-14T12:38:29;6.64;86.72
65460;DHT22;52058;49.822;6.754;2023-02-14T12:41:07;6.94;86.90
65460;DHT22;52058;49.822;6.754;2023-02-14T12:43:45;6.77;85.86
65460;DHT22;52058;49.822;6.754;2023-02-14T12:46:30;6.91;86.05
65460;DHT22;52058;49.822;6.754;2023-02-14T12:52:15;7.35;86.87
65460;DHT22;52058;49.822;6.754;2023-02-14T12:54:59;7.42;85.94
65460;DHT22;52058;49.822;6.754;2023-02-14T12:57:36;7.45;85.70
65460;DHT22;52058;49.822;6.754;2023-02-14T13:00:18;7.63;86.01
65460;DHT22;52058;49.822;6.754;2023-02-14T13:03:14;7.89;84.97
65460;DHT22;52058;49.822;6.754;2023-02-14T13:05:52;7.91;84.36
65460;DHT22;52058;49.822;6.754;2023-02-14T13:08:36;7.94;82.68
65460;DHT22;52058;49.822;6.754;2023-02-14T13:11:14;7.93;83.92
65460;DHT22;52058;49.822;6.754;2023-02-14T13:13:52;8.05;83.30
65460;DHT22;52058;49.822;6.754;2023-02-14T13:16:25;8.05;82.33
65460;DHT22;52058;49.822;6.754;2023-02-14T13:18:57;8.13;82.76
65460;DHT22;52058;49.822;6.754;2023-02-14T13:21:28;8.20;82.50
65460;DHT22;52058;49.822;6.754;2023-02-14T13:24:06;8.22;82.60
65460;DHT22;52058;49.822;6.754;2023-02-14T13:26:37;8.28;82.64
65460;DHT22;52058;49.822;6.754;2023-02-14T13:29:08;8.55;82.36
65460;DHT22;52058;49.822;6.754;2023-02-14T13:31:36;8.82;82.64
65460;DHT22;52058;49.822;6.754;2023-02-14T13:34:07;8.96;80.81
65460;DHT22;52058;49.822;6.754;2023-02-14T13:36:39;9.20;80.48
65460;DHT22;52058;49.822;6.754;2023-02-14T13:39:28;9.41;80.40
65460;DHT22;52058;49.822;6.754;2023-02-14T13:41:57;9.67;80.12
65460;DHT22;52058;49.822;6.754;2023-02-14T13:44:44;9.82;77.60
65460;DHT22;52058;49.822;6.754;2023-02-14T13:47:16;9.99;76.83
65460;DHT22;52058;49.822;6.754;2023-02-14T13:49:49;10.26;78.21
65460;DHT22;52058;49.822;6.754;2023-02-14T13:52:39;10.51;77.20
65460;DHT22;52058;49.822;6.754;2023-02-14T13:55:08;10.41;76.60
65460;DHT22;52058;49.822;6.754;2023-02-14T13:57:39;10.58;76.36
65460;DHT22;52058;49.822;6.754;2023-02-14T14:00:39;10.58;76.78
65460;DHT22;52058;49.822;6.754;2023-02-14T14:03:11;10.51;75.48
65460;DHT22;52058;49.822;6.754;2023-02-14T14:05:58;10.60;76.31
65460;DHT22;52058;49.822;6.754;2023-02-14T14:08:39;10.65;76.23
65460;DHT22;52058;49.822;6.754;2023-02-14T14:14:32;10.54;75.73
65460;DHT22;52058;49.822;6.754;2023-02-14T14:17:01;10.44;75.28
65460;DHT22;52058;49.822;6.754;2023-02-14T14:19:37;10.60;77.09
65460;DHT22;52058;49.822;6.754;2023-02-14T14:22:07;10.53;76.02
65460;DHT22;52058;49.822;6.754;2023-02-14T14:24:35;10.54;76.33
65460;DHT22;52058;49.822;6.754;2023-02-14T14:27:12;10.65;76.81
65460;DHT22;52058;49.822;6.754;2023-02-14T14:29:45;10.65;76.68
65460;DHT22;52058;49.822;6.754;2023-02-14T14:32:17;10.67;77.06
65460;DHT22;52058;49.822;6.754;2023-02-14T14:34:49;10.70;77.04
65460;DHT22;52058;49.822;6.754;2023-02-14T14:37:18;10.63;76.17
65460;DHT22;52058;49.822;6.754;2023-02-14T14:39:50;10.61;77.50
65460;DHT22;52058;49.822;6.754;2023-02-14T14:42:19;10.67;77.75
65460;DHT22;52058;49.822;6.754;2023-02-14T14:44:49;10.64;77.97
65460;DHT22;52058;49.822;6.754;2023-02-14T14:47:19;10.60;77.40
65460;DHT22;52058;49.822;6.754;2023-02-14T14:49:49;10.63;76.51
65460;DHT22;52058;49.822;6.754;2023-02-14T14:52:28;10.64;77.14
65460;DHT22;52058;49.822;6.754;2023-02-14T14:54:56;10.68;76.12
65460;DHT22;52058;49.822;6.754;2023-02-14T14:57:25;10.71;75.74
65460;DHT22;52058;49.822;6.754;2023-02-14T15:00:16;10.64;76.10
65460;DHT22;52058;49.822;6.754;2023-02-14T15:02:55;10.67;76.74
65460;DHT22;52058;49.822;6.754;2023-02-14T15:05:25;10.67;77.85
65460;DHT22;52058;49.822;6.754;2023-02-14T15:07:52;10.58;78.82
65460;DHT22;52058;49.822;6.754;2023-02-14T15:10:26;10.57;79.19
65460;DHT22;52058;49.822;6.754;2023-02-14T15:12:56;10.56;78.99
65460;DHT22;52058;49.822;6.754;2023-02-14T15:15:45;10.48;79.91
65460;DHT22;52058;49.822;6.754;2023-02-14T15:18:13;10.43;79.60
65460;DHT22;52058;49.822;6.754;2023-02-14T15:20:40;10.32;79.80
65460;DHT22;52058;49.822;6.754;2023-02-14T15:23:15;10.32;79.93
65460;DHT22;52058;49.822;6.754;2023-02-14T15:25:43;10.37;78.89
65460;DHT22;52058;49.822;6.754;2023-02-14T15:28:14;10.33;79.35
65460;DHT22;52058;49.822;6.754;2023-02-14T15:30:55;10.21;79.06
65460;DHT22;52058;49.822;6.754;2023-02-14T15:33:23;10.23;80.18
65460;DHT22;52058;49.822;6.754;2023-02-14T15:35:51;10.16;80.61
65460;DHT22;52058;49.822;6.754;2023-02-14T15:38:19;10.09;80.47
65460;DHT22;52058;49.822;6.754;2023-02-14T15:40:47;9.99;80.80
65460;DHT22;52058;49.822;6.754;2023-02-14T15:43:23;9.93;80.87
65460;DHT22;52058;49.822;6.754;2023-02-14T15:45:56;9.92;80.49
65460;DHT22;52058;49.822;6.754;2023-02-14T15:48:26;9.88;80.61
65460;DHT22;52058;49.822;6.754;2023-02-14T15:50:55;9.79;80.66
65460;DHT22;52058;49.822;6.754;2023-02-14T15:53:37;9.71;80.47
65460;DHT22;52058;49.822;6.754;2023-02-14T15:56:08;9.57;81.34
65460;DHT22;52058;49.822;6.754;2023-02-14T15:58:38;9.55;81.63
65460;DHT22;52058;49.822;6.754;2023-02-14T16:01:06;9.37;82.31
65460;DHT22;52058;49.822;6.754;2023-02-14T16:03:35;9.23;82.69
65460;DHT22;52058;49.822;6.754;2023-02-14T16:06:03;9.10;83.26
65460;DHT22;52058;49.822;6.754;2023-02-14T16:08:32;8.94;84.08
65460;DHT22;52058;49.822;6.754;2023-02-14T16:11:02;8.75;84.56
65460;DHT22;52058;49.822;6.754;2023-02-14T16:13:31;8.66;85.24
65460;DHT22;52058;49.822;6.754;2023-02-14T16:16:01;8.44;86.07
65460;DHT22;52058;49.822;6.754;2023-02-14T16:18:34;8.24;86.96
65460;DHT22;52058;49.822;6.754;2023-02-14T16:21:12;8.15;87.57